Terminal Aerodrome Forecast
Issued by NWS Hastings, NE

Home | Current Version | Previous Version | Text Only | Print | Product List | Glossary On
Versions: 1 2 3 4 5 6 7 8 9 10 11 12 13 14 15 16 17 18 19 20 21 22 23 24 25 26 27 28 29 30 31 32 33 34 35 36 37 38 39 40 41 42 43 44 45 46 47 48 49 50
000
FTUS43 KGID 270305 AAA
TAFGRI
TAF AMD
KGRI 270305Z 2703/2724 02014KT P6SM SCT015 BKN030
      TEMPO 2703/2705 BKN015
     FM270500 VRB05KT P6SM BKN030
     FM271500 16011KT P6SM VCSH SCT025 BKN060=

USA.gov is the U.S. government's official web portal to all federal, state and local government web resources and services.